createdAt,value
2019-05-02T00:03:56.651Z,75.99
2019-05-02T00:09:04.053Z,76.06
2019-05-02T00:14:10.711Z,76.62
2019-05-02T00:19:16.100Z,76.66
2019-05-02T00:24:21.440Z,77.24
2019-05-02T00:29:26.978Z,76.99
2019-05-02T00:34:32.454Z,76.75
2019-05-02T00:39:38.153Z,76.87
2019-05-02T00:44:46.858Z,77.00
2019-05-02T00:49:50.681Z,77.32
2019-05-02T00:54:58.692Z,77.34
2019-05-02T01:00:03.874Z,77.81
2019-05-02T01:05:11.233Z,77.89
2019-05-02T01:10:21.203Z,78.22
2019-05-02T01:15:24.375Z,79.20
2019-05-02T01:20:30.011Z,78.94
2019-05-02T01:25:35.496Z,78.42
2019-05-02T01:31:13.017Z,78.18
2019-05-02T01:36:26.900Z,77.99
2019-05-02T01:41:32.552Z,77.72
2019-05-02T01:46:37.831Z,77.67
2019-05-02T01:51:47.674Z,77.89
2019-05-02T01:56:50.506Z,78.00
2019-05-02T02:01:57.943Z,78.68
2019-05-02T02:07:04.033Z,79.15
2019-05-02T02:12:11.274Z,79.92
2019-05-02T02:17:17.336Z,79.37
2019-05-02T02:22:39.169Z,79.50
2019-05-02T02:27:42.188Z,79.07
2019-05-02T02:32:50.216Z,78.86
2019-05-02T02:37:55.886Z,78.83
2019-05-02T02:43:12.710Z,79.22
2019-05-02T02:48:09.496Z,79.27
2019-05-02T02:53:18.369Z,80.49
2019-05-02T02:58:23.949Z,80.31
2019-05-02T03:03:30.582Z,79.57
2019-05-02T03:08:44.675Z,79.19
2019-05-02T03:14:07.503Z,79.69
2019-05-02T03:19:14.790Z,80.70
2019-05-02T03:24:19.631Z,80.81
2019-05-02T03:29:39.657Z,81.99
2019-05-02T03:34:46.659Z,82.19
2019-05-02T03:39:41.617Z,82.06
2019-05-02T03:44:54.926Z,82.28
2019-05-02T03:49:54.309Z,82.51
2019-05-02T03:54:59.880Z,82.30
2019-05-02T04:00:05.887Z,82.44
2019-05-02T04:05:12.025Z,82.07
2019-05-02T04:10:33.990Z,82.07
2019-05-02T04:15:40.113Z,81.75
2019-05-02T04:20:49.589Z,81.90
2019-05-02T04:25:55.040Z,81.35
2019-05-02T04:31:00.388Z,81.48
2019-05-02T04:36:14.201Z,82.17
2019-05-02T04:41:18.740Z,82.29
2019-05-02T04:46:27.269Z,81.57
2019-05-02T04:51:30.811Z,81.65
2019-05-02T04:56:42.076Z,81.78
2019-05-02T05:01:52.620Z,81.94
2019-05-02T05:06:56.062Z,81.59
2019-05-02T05:11:59.048Z,81.17
2019-05-02T05:17:07.880Z,81.90
2019-05-02T05:22:12.848Z,81.90
2019-05-02T05:27:22.520Z,81.81
2019-05-02T05:32:25.436Z,81.88
2019-05-02T05:37:30.695Z,81.46
2019-05-02T05:42:37.923Z,81.57
2019-05-02T05:47:42.975Z,81.29
2019-05-02T05:52:51.702Z,81.39
2019-05-02T05:58:03.127Z,81.05
2019-05-02T06:03:11.555Z,80.73
2019-05-02T06:08:13.888Z,80.26
2019-05-02T06:13:18.690Z,80.40
2019-05-02T06:18:24.016Z,80.26
2019-05-02T06:23:31.018Z,79.61
2019-05-02T06:28:41.656Z,79.11
2019-05-02T06:33:44.470Z,78.86
2019-05-02T06:38:52.281Z,77.97
2019-05-02T06:43:56.921Z,77.40
2019-05-02T06:49:02.593Z,76.97
2019-05-02T06:54:08.050Z,76.63
2019-05-02T06:59:18.446Z,75.72
2019-05-02T07:04:22.816Z,75.38
2019-05-02T07:09:39.909Z,74.38
2019-05-02T07:14:34.821Z,74.10
2019-05-02T07:19:43.863Z,72.90
2019-05-02T07:24:50.210Z,72.91
2019-05-02T07:29:57.629Z,72.83
2019-05-02T07:35:02.551Z,72.39
2019-05-02T07:40:12.122Z,71.85
2019-05-02T07:45:17.203Z,71.21
2019-05-02T07:50:22.740Z,70.40
2019-05-02T07:55:30.534Z,70.26
2019-05-02T08:00:37.057Z,70.29
2019-05-02T08:05:42.617Z,69.93
2019-05-02T08:10:47.857Z,69.06
2019-05-02T08:15:53.124Z,68.40
2019-05-02T08:20:58.505Z,68.06
2019-05-02T08:26:04.106Z,68.46
2019-05-02T08:31:13.582Z,67.28
2019-05-02T08:36:17.815Z,65.90
2019-05-02T08:41:23.090Z,65.49
2019-05-02T08:46:28.679Z,64.54
2019-05-02T08:51:33.935Z,62.67
2019-05-02T08:56:39.508Z,62.21
2019-05-02T09:01:44.873Z,61.46
2019-05-02T09:06:53.135Z,60.87
2019-05-02T09:12:08.683Z,60.40
2019-05-02T09:17:08.882Z,61.10
2019-05-02T09:22:13.154Z,60.19
2019-05-02T09:27:18.493Z,59.38
2019-05-02T09:32:26.211Z,59.99
2019-05-02T09:37:32.104Z,59.15
2019-05-02T09:42:37.771Z,58.89
2019-05-02T09:47:56.295Z,59.36
2019-05-02T09:52:52.265Z,59.30
2019-05-02T09:57:58.871Z,59.36
2019-05-02T10:03:04.389Z,58.03
2019-05-02T10:08:13.505Z,56.89
2019-05-02T10:13:16.684Z,55.58
2019-05-02T10:18:28.340Z,55.21
2019-05-02T10:23:28.997Z,54.51
2019-05-02T10:28:34.251Z,54.24
2019-05-02T10:33:39.607Z,54.06
2019-05-02T10:38:49.090Z,52.33
2019-05-02T10:43:56.641Z,51.03
2019-05-02T10:49:12.473Z,51.26
2019-05-02T10:54:20.506Z,49.87
2019-05-02T10:59:24.941Z,50.74
2019-05-02T11:04:32.437Z,50.55
2019-05-02T11:09:37.640Z,48.75
2019-05-02T11:14:57.716Z,50.66
2019-05-02T11:20:05.224Z,49.40
2019-05-02T11:25:12.084Z,48.31
2019-05-02T11:30:22.417Z,47.53
2019-05-02T11:35:24.691Z,47.55
2019-05-02T11:40:32.024Z,45.92
2019-05-02T11:45:37.402Z,45.82
2019-05-02T11:50:43.783Z,45.10
2019-05-02T11:55:49.242Z,44.03
2019-05-02T12:00:54.527Z,43.83
2019-05-02T12:06:01.831Z,42.17
2019-05-02T12:11:08.430Z,41.60
2019-05-02T12:16:14.620Z,38.17
2019-05-02T12:21:19.997Z,37.41
2019-05-02T12:26:27.632Z,36.87
2019-05-02T12:31:33.237Z,38.04
2019-05-02T12:36:38.663Z,36.71
2019-05-02T12:41:44.353Z,36.15
2019-05-02T12:46:51.802Z,35.80
2019-05-02T12:51:57.178Z,37.33
2019-05-02T12:57:02.555Z,33.04
2019-05-02T13:02:12.161Z,32.46
2019-05-02T13:07:17.428Z,31.16
2019-05-02T13:12:27.824Z,30.24
2019-05-02T13:17:35.667Z,28.46
2019-05-02T13:23:00.930Z,28.15
2019-05-02T13:28:05.567Z,27.67
2019-05-02T13:33:14.235Z,27.80
2019-05-02T13:38:23.003Z,28.97
2019-05-02T13:43:33.216Z,31.12
2019-05-02T13:48:38.968Z,32.65
2019-05-02T13:54:03.257Z,33.52
2019-05-02T13:59:10.513Z,34.66
2019-05-02T14:04:16.330Z,35.69
2019-05-02T14:09:44.048Z,35.78
2019-05-02T14:14:51.929Z,31.02
2019-05-02T14:20:08.525Z,28.32
2019-05-02T14:25:08.023Z,27.00
2019-05-02T14:30:13.985Z,24.86
2019-05-02T14:35:28.228Z,22.17
2019-05-02T14:40:34.149Z,23.81
2019-05-02T14:45:41.958Z,23.68
2019-05-02T14:50:46.667Z,25.56
2019-05-02T14:55:57.574Z,26.94
2019-05-02T15:01:02.873Z,25.42
2019-05-02T15:06:09.119Z,25.66
2019-05-02T15:11:14.467Z,25.22
2019-05-02T15:16:23.052Z,28.52
2019-05-02T15:21:42.300Z,29.46
2019-05-02T15:26:48.343Z,29.78
2019-05-02T15:32:16.061Z,33.02
2019-05-02T15:37:25.673Z,34.60
2019-05-02T15:42:28.892Z,36.20
2019-05-02T15:47:36.936Z,37.41
2019-05-02T15:52:43.190Z,38.19
2019-05-02T15:57:49.479Z,38.58
2019-05-02T16:02:56.271Z,39.14
2019-05-02T16:08:06.299Z,39.48
2019-05-02T16:13:15.451Z,39.60
2019-05-02T16:18:16.984Z,40.73
2019-05-02T16:23:42.454Z,40.09
2019-05-02T16:28:47.936Z,40.95
2019-05-02T16:33:57.398Z,41.70
2019-05-02T16:39:05.111Z,41.50
2019-05-02T16:44:12.703Z,41.74
2019-05-02T16:49:18.746Z,41.92
2019-05-02T16:54:24.181Z,41.54
2019-05-02T16:59:30.135Z,42.05
2019-05-02T17:04:36.619Z,42.93
2019-05-02T17:10:02.809Z,42.39
2019-05-02T17:15:31.328Z,43.07
2019-05-02T17:20:33.955Z,43.63
2019-05-02T17:26:01.735Z,44.37
2019-05-02T17:31:10.855Z,44.04
2019-05-02T17:36:15.392Z,44.76
2019-05-02T17:41:22.234Z,45.79
2019-05-02T17:46:27.841Z,46.20
2019-05-02T17:52:05.362Z,48.11
2019-05-02T17:57:03.471Z,57.80
2019-05-02T18:02:12.319Z,60.99
2019-05-02T18:07:18.105Z,62.65
2019-05-02T18:12:23.549Z,65.04
2019-05-02T18:17:29.165Z,66.75
2019-05-02T18:22:39.965Z,67.88
2019-05-02T18:27:42.801Z,68.88
2019-05-02T18:32:48.186Z,70.16
2019-05-02T18:37:54.410Z,70.18
2019-05-02T18:43:03.574Z,70.14
2019-05-02T18:48:07.039Z,71.01
2019-05-02T18:53:18.630Z,71.84
2019-05-02T18:58:22.876Z,72.53
2019-05-02T19:03:29.167Z,73.02
2019-05-02T19:08:46.707Z,74.00
2019-05-02T19:13:46.076Z,73.79
2019-05-02T19:18:55.850Z,73.90
2019-05-02T19:23:58.519Z,74.12
2019-05-02T19:29:26.998Z,74.72
2019-05-02T19:34:33.458Z,75.21
2019-05-02T19:39:44.831Z,75.47
2019-05-02T19:44:46.560Z,74.45
2019-05-02T19:49:54.256Z,74.41
2019-05-02T19:54:59.433Z,74.85
2019-05-02T20:00:06.736Z,75.62
2019-05-02T20:05:16.469Z,76.35
2019-05-02T20:10:19.655Z,76.47
2019-05-02T20:15:30.230Z,76.28
2019-05-02T20:20:58.250Z,77.03
2019-05-02T20:26:03.804Z,77.83
2019-05-02T20:31:09.200Z,78.32
2019-05-02T20:36:14.779Z,77.57
2019-05-02T20:41:22.406Z,77.12
2019-05-02T20:46:27.872Z,77.04
2019-05-02T20:51:36.331Z,77.01
2019-05-02T20:56:42.628Z,76.60
2019-05-02T21:01:48.559Z,77.27
2019-05-02T21:07:11.323Z,76.82
2019-05-02T21:12:16.623Z,76.35
2019-05-02T21:17:22.158Z,76.98
2019-05-02T21:22:29.424Z,76.99
2019-05-02T21:27:35.295Z,77.36
2019-05-02T21:32:42.642Z,78.15
2019-05-02T21:37:49.187Z,77.71
2019-05-02T21:42:54.781Z,78.02
2019-05-02T21:48:02.155Z,78.24
2019-05-02T21:53:13.559Z,77.50
2019-05-02T21:58:19.122Z,77.68
2019-05-02T22:03:25.917Z,77.34
2019-05-02T22:08:32.344Z,78.07
2019-05-02T22:13:38.244Z,78.43
2019-05-02T22:18:43.889Z,78.74
2019-05-02T22:23:49.405Z,78.26
2019-05-02T22:28:54.728Z,79.05
2019-05-02T22:34:01.991Z,79.20
2019-05-02T22:39:35.207Z,79.13
2019-05-02T22:44:41.735Z,78.98
2019-05-02T22:49:47.535Z,79.11
2019-05-02T22:54:53.094Z,78.78
2019-05-02T22:59:58.479Z,78.61
2019-05-02T23:05:03.820Z,79.14
2019-05-02T23:10:09.414Z,78.91
2019-05-02T23:15:14.639Z,78.75
2019-05-02T23:20:21.775Z,78.32
2019-05-02T23:25:44.638Z,78.02
2019-05-02T23:30:51.872Z,78.03
2019-05-02T23:35:57.292Z,77.77
2019-05-02T23:41:02.767Z,77.68
2019-05-02T23:46:09.068Z,77.00
2019-05-02T23:51:14.572Z,76.69
2019-05-02T23:56:21.983Z,76.66
